Kendrick, ID

5:36 AM PDT on September 17, 2014 (GMT -0700)
Lewiston-Nez Perce County | Change Station
CLOSE
Current Station
Airport
Location: Lewiston,
Elevation: 1437 ft
Nearby Weather Stations

Elev 1437 ft 46.37 °N, 117.02 °W | Updated 40 minutes ago

Partly Cloudy
Partly Cloudy
61 °F
Feels Like 61 °F
N
0
Wind Variable Wind from North

Today
High -- | Low -- °F
--% Chance of Precip.
Yesterday
High -- | Low -- °F
Precip. -- in
6:26 AM 6:53 PM
Last Quarter, 36% visible
Pressure 29.79 in
Visibility 10.0 miles
Clouds Clear
Dew Point 37 °F
Humidity 41%
Rainfall 0.00 in
Snow Depth 0 in , 0 in , 0 in
UV 0 out of 12
Pollen 7.10 out of 12
Air Quality Not available.
Flu Activity Not available.
METAR KLWS 171156Z AUTO 00000KT 10SM CLR 16/03 A2982 RMK AO2 SLP086 T01610028 10228 20156 51004

More Conditions Fewer Conditions

Pressure 29.79 in
Visibility 10.0 miles
Clouds Clear
Dew Point 37 °F
Humidity 41%
Rainfall 0.00 in
Snow Depth 0 in , 0 in , 0 in
UV 0 out of 12
Pollen 7.10 out of 12
Air Quality Not available.
Flu Activity Not available.
METAR KLWS 171156Z AUTO 00000KT 10SM CLR 16/03 A2982 RMK AO2 SLP086 T01610028 10228 20156 51004

More Conditions Fewer Conditions

10-Day Weather Forecast

Almanac

Astronomy

Sep. 17, 2014 Rise Set
Actual Time 6:26 AM PDT 6:53 PM PDT
Civil Twilight 5:56 AM PDT 7:24 PM PDT
Nautical Twilight 5:20 AM PDT 7:59 PM PDT
Astronomical Twilight 4:43 AM PDT 8:37 PM PDT
Moon 12:15 AM PDT 3:21 PM PDT
Length of Visible Light 13h 27m
Length of Day
12h 26m
Tomorrow will be 3m 18s shorter.
Last Quarter, 36% of the Moon is Illuminated
Today
Last Quarter
Sep 24
New
Oct 1
First Quarter
Oct 8
Full
Oct 15
Last Quarter

Today's Extremes

State Highs State Lows

Community

WunderPhotos

Upload Photos

1,754,013 photos uploaded!

Nearby

Snow Depth

Station Depth Elevation
Swede Peak 0 in 7640 ft
Bogus Basin 0 in 6340 ft
Elk Butte 0 in 5690 ft
Somsen Ranch 1 in 6800 ft
Myrtle Creek 0 in 3520 ft

Earthquake Activity

City Distance Mag. Time & Date
No recent earthquake activity has been reported nearby.
Minimum magnitude displayed is 2.5.

Coastal Water Temperatures

Place Temperature
No Stations Reporting

Nearby Weather Stations